Time;durP1;ratioP1;P1;durP2;ratioP2;P2;SDS_P1;SDS_P2;PMS_P1;PMS_P2;Temp;Humidity;BMP_temperature;BMP_pressure;BME280_temperature;BME280_humidity;BME280_pressure;Samples;Min_cycle;Max_cycle;Signal;HPM_P1;HPM_P2
2023/03/09 00:00:10;;;;;;;5.33;2.70;;;9.60;99.90;;;;;;5037808;28;20192;-68
2023/03/09 00:02:36;;;;;;;3.33;3.03;;;9.70;99.90;;;;;;5035550;28;20532;-68
2023/03/09 00:05:03;;;;;;;7.30;2.33;;;9.70;99.90;;;;;;5037941;28;20456;-68
2023/03/09 00:07:30;;;;;;;4.90;2.70;;;9.70;99.90;;;;;;5047045;28;20532;-68
2023/03/09 00:09:56;;;;;;;6.43;2.40;;;9.70;99.90;;;;;;5038440;28;20430;-69
2023/03/09 00:12:22;;;;;;;2.93;2.40;;;9.70;99.90;;;;;;5048017;28;20435;-69
2023/03/09 00:14:54;;;;;;;11.80;3.07;;;9.70;99.90;;;;;;5034489;28;20443;-69
2023/03/09 00:17:20;;;;;;;3.50;2.40;;;9.70;99.90;;;;;;5035991;28;20559;-69
2023/03/09 00:19:46;;;;;;;2.67;2.13;;;9.70;99.90;;;;;;5039472;28;20567;-69
2023/03/09 00:22:11;;;;;;;3.33;2.30;;;9.70;99.90;;;;;;5039194;28;20197;-69
2023/03/09 00:24:45;;;;;;;3.33;2.13;;;9.70;99.90;;;;;;5035889;28;20205;-69
2023/03/09 00:27:23;;;;;;;3.70;2.40;;;9.70;99.90;;;;;;5035334;28;20198;-68
2023/03/09 00:29:48;;;;;;;2.13;1.90;;;9.80;99.90;;;;;;5036296;28;20436;-69
2023/03/09 00:32:14;;;;;;;5.03;2.33;;;9.80;99.90;;;;;;5034762;28;21027;-69
2023/03/09 00:34:39;;;;;;;2.97;1.63;;;9.80;99.90;;;;;;5033333;28;20194;-69
2023/03/09 00:37:05;;;;;;;4.20;2.73;;;9.80;99.90;;;;;;5023738;28;20226;-68
2023/03/09 00:39:31;;;;;;;2.73;1.53;;;9.80;99.90;;;;;;5032339;28;20642;-69
2023/03/09 00:41:56;;;;;;;3.57;1.40;;;9.80;99.90;;;;;;5041775;28;20185;-69
2023/03/09 00:44:22;;;;;;;1.53;1.30;;;9.80;99.90;;;;;;5039981;28;20194;-68
2023/03/09 00:46:47;;;;;;;3.70;1.43;;;9.80;99.90;;;;;;5027932;28;20178;-69
2023/03/09 00:49:14;;;;;;;2.30;1.23;;;9.70;99.90;;;;;;5028485;28;20182;-69
2023/03/09 00:51:41;;;;;;;1.27;1.17;;;9.70;99.90;;;;;;5036301;28;20173;-69
2023/03/09 00:54:07;;;;;;;2.67;1.27;;;9.70;99.90;;;;;;5039938;28;20462;-69
2023/03/09 00:56:33;;;;;;;1.13;0.60;;;9.60;99.90;;;;;;5029504;28;20441;-69
2023/03/09 00:58:59;;;;;;;0.93;0.80;;;9.60;99.90;;;;;;5033311;28;20741;-69
2023/03/09 01:01:25;;;;;;;1.87;0.67;;;9.60;99.90;;;;;;5043578;28;20280;-69
2023/03/09 01:03:51;;;;;;;0.90;0.73;;;9.50;99.90;;;;;;5040583;28;20802;-69
2023/03/09 01:06:17;;;;;;;2.00;0.77;;;9.40;99.90;;;;;;5042991;28;20807;-69
2023/03/09 01:08:45;;;;;;;1.33;0.67;;;9.30;99.90;;;;;;5041831;28;20462;-69
2023/03/09 01:11:13;;;;;;;2.60;0.90;;;9.30;99.90;;;;;;5049966;28;20462;-69
2023/03/09 01:13:39;;;;;;;0.60;0.50;;;9.30;99.90;;;;;;5049914;28;20522;-69
2023/03/09 01:16:05;;;;;;;0.57;0.57;;;9.20;99.90;;;;;;5034973;28;20962;-69
2023/03/09 01:18:31;;;;;;;3.50;0.60;;;9.10;99.90;;;;;;5035499;28;20461;-68
2023/03/09 01:20:58;;;;;;;0.50;0.50;;;9.10;99.90;;;;;;5035649;28;20490;-69
2023/03/09 01:23:23;;;;;;;0.93;0.60;;;9.10;99.90;;;;;;5035552;28;20944;-68
2023/03/09 01:25:49;;;;;;;0.53;0.47;;;8.90;99.90;;;;;;5033021;28;20452;-68
2023/03/09 01:28:14;;;;;;;1.77;0.57;;;8.90;99.90;;;;;;5034776;28;20194;-68
2023/03/09 01:30:40;;;;;;;1.47;0.50;;;8.90;99.90;;;;;;5035402;28;20172;-67
2023/03/09 01:33:05;;;;;;;0.93;0.57;;;8.90;99.90;;;;;;5035505;28;20224;-68
2023/03/09 01:35:31;;;;;;;0.50;0.40;;;8.90;99.90;;;;;;5031999;28;20182;-69
2023/03/09 01:37:57;;;;;;;0.70;0.60;;;8.90;99.90;;;;;;5031845;28;20217;-68
2023/03/09 01:40:25;;;;;;;0.80;0.50;;;8.90;99.90;;;;;;5034482;28;20174;-68
2023/03/09 01:42:55;;;;;;;1.23;0.60;;;8.90;99.90;;;;;;5035377;28;20174;-68
2023/03/09 01:45:21;;;;;;;1.13;0.63;;;8.80;99.90;;;;;;5033201;28;20464;-68
2023/03/09 01:47:46;;;;;;;1.43;0.60;;;8.80;99.90;;;;;;5034241;28;20463;-68
2023/03/09 01:50:14;;;;;;;3.43;0.60;;;8.70;99.90;;;;;;5034684;28;20528;-68
2023/03/09 01:52:42;;;;;;;0.60;0.50;;;8.70;99.90;;;;;;5049159;28;20236;-68
2023/03/09 01:55:13;;;;;;;2.53;0.63;;;8.70;99.90;;;;;;5044171;28;20532;-68
2023/03/09 01:57:51;;;;;;;1.90;0.60;;;8.60;99.90;;;;;;5036184;28;20460;-68
2023/03/09 02:00:20;;;;;;;2.97;1.00;;;8.60;99.90;;;;;;5038931;28;20432;-68
2023/03/09 02:02:49;;;;;;;0.70;0.53;;;8.60;99.90;;;;;;5044199;28;20436;-68
2023/03/09 02:05:21;;;;;;;0.60;0.50;;;8.60;99.90;;;;;;5031380;28;20461;-68
2023/03/09 02:07:50;;;;;;;2.07;0.60;;;8.70;99.90;;;;;;5043477;28;20505;-68
2023/03/09 02:10:40;;;;;;;0.40;0.40;;;8.60;99.90;;;;;;5038747;28;20515;-68
2023/03/09 02:13:12;;;;;;;1.27;0.50;;;8.60;99.90;;;;;;5045261;28;20459;-68
2023/03/09 02:15:38;;;;;;;0.57;0.57;;;8.60;99.90;;;;;;5036423;28;20463;-68
2023/03/09 02:18:03;;;;;;;0.50;0.50;;;8.50;99.90;;;;;;5042561;28;20492;-68
2023/03/09 02:20:41;;;;;;;0.90;0.53;;;8.50;99.90;;;;;;5041973;28;20261;-68
2023/03/09 02:23:22;;;;;;;1.33;0.60;;;8.30;99.90;;;;;;5044752;28;20581;-68
2023/03/09 02:25:57;;;;;;;0.40;0.40;;;8.30;99.90;;;;;;5035247;28;20456;-68
2023/03/09 02:28:23;;;;;;;0.80;0.60;;;8.20;99.90;;;;;;5044856;28;21057;-68
2023/03/09 02:30:50;;;;;;;3.23;0.70;;;8.20;99.90;;;;;;5042664;28;20527;-68
2023/03/09 02:33:27;;;;;;;1.93;0.60;;;8.10;99.90;;;;;;5017517;28;20260;-68
2023/03/09 02:35:55;;;;;;;0.50;0.50;;;8.10;99.90;;;;;;5037325;28;20459;-68
2023/03/09 02:38:21;;;;;;;0.50;0.50;;;8.10;99.90;;;;;;5038942;28;20535;-68
2023/03/09 02:40:48;;;;;;;0.60;0.43;;;8.10;99.90;;;;;;5048605;28;20844;-68
2023/03/09 02:43:18;;;;;;;1.30;0.50;;;8.20;99.90;;;;;;5043966;28;20651;-68
2023/03/09 02:45:44;;;;;;;1.10;0.50;;;8.20;99.90;;;;;;5041017;28;20509;-67
2023/03/09 02:48:09;;;;;;;0.70;0.60;;;8.20;99.90;;;;;;5041142;28;20468;-67
2023/03/09 02:50:35;;;;;;;1.27;0.60;;;8.20;99.90;;;;;;5040556;28;20429;-68
2023/03/09 02:53:01;;;;;;;0.57;0.50;;;8.20;99.90;;;;;;5048487;28;20192;-68
2023/03/09 02:55:26;;;;;;;1.23;0.83;;;8.30;99.90;;;;;;5043193;28;20643;-68
2023/03/09 02:57:52;;;;;;;1.63;0.70;;;8.30;99.90;;;;;;5042164;28;20721;-68
2023/03/09 03:00:21;;;;;;;2.00;0.60;;;8.30;99.90;;;;;;5039042;28;20689;-68
2023/03/09 03:02:46;;;;;;;0.80;0.63;;;8.50;99.90;;;;;;5033968;28;20189;-68
2023/03/09 03:05:12;;;;;;;0.60;0.50;;;8.50;99.90;;;;;;5036789;28;20469;-68
2023/03/09 03:07:37;;;;;;;0.90;0.57;;;8.50;99.90;;;;;;5043956;28;20220;-67
2023/03/09 03:10:03;;;;;;;0.90;0.50;;;8.50;99.90;;;;;;5045677;28;20189;-68
2023/03/09 03:12:29;;;;;;;0.90;0.60;;;8.60;99.90;;;;;;5044623;28;20220;-68
2023/03/09 03:14:54;;;;;;;0.67;0.63;;;8.60;99.90;;;;;;5045867;28;20177;-68
2023/03/09 03:17:20;;;;;;;0.80;0.60;;;8.60;99.90;;;;;;5034243;28;20237;-68
2023/03/09 03:19:45;;;;;;;1.17;0.60;;;8.60;99.90;;;;;;5040432;28;20200;-68
2023/03/09 03:22:11;;;;;;;0.70;0.63;;;8.70;99.90;;;;;;5041946;28;20186;-68
2023/03/09 03:24:38;;;;;;;2.83;0.90;;;8.60;99.90;;;;;;5039319;28;20190;-68
2023/03/09 03:27:03;;;;;;;1.70;1.03;;;8.70;99.90;;;;;;5034909;28;20193;-67
2023/03/09 03:29:29;;;;;;;0.80;0.70;;;8.70;99.90;;;;;;5031642;28;20519;-68
2023/03/09 03:31:54;;;;;;;0.90;0.60;;;8.70;99.90;;;;;;5034209;28;20210;-68
2023/03/09 03:34:20;;;;;;;0.60;0.60;;;8.80;99.90;;;;;;5043193;28;20186;-68
2023/03/09 03:36:45;;;;;;;2.73;0.60;;;8.80;99.90;;;;;;5033685;28;20170;-68
2023/03/09 03:39:11;;;;;;;0.70;0.50;;;8.70;99.90;;;;;;5029861;28;20640;-68
2023/03/09 03:41:36;;;;;;;0.60;0.57;;;8.70;99.90;;;;;;5036577;28;20177;-68
2023/03/09 03:44:02;;;;;;;0.73;0.70;;;8.60;99.90;;;;;;5048813;28;20178;-67
2023/03/09 03:46:27;;;;;;;0.60;0.60;;;8.50;99.90;;;;;;5030114;28;20252;-67
2023/03/09 03:48:53;;;;;;;1.47;0.50;;;8.50;99.90;;;;;;5031486;28;20198;-68
2023/03/09 03:51:18;;;;;;;0.73;0.63;;;8.40;99.90;;;;;;5030852;28;20186;-68
2023/03/09 03:53:44;;;;;;;0.50;0.40;;;8.40;99.90;;;;;;5030759;28;20248;-68
2023/03/09 03:56:10;;;;;;;1.37;0.50;;;8.40;99.90;;;;;;5032093;28;20188;-68
2023/03/09 03:58:35;;;;;;;1.13;0.50;;;8.40;99.90;;;;;;5030115;28;20201;-68
2023/03/09 04:01:01;;;;;;;3.97;0.83;;;8.30;99.90;;;;;;5035141;28;20318;-68
2023/03/09 04:03:26;;;;;;;2.20;0.70;;;8.30;99.90;;;;;;5034223;28;20200;-67
2023/03/09 04:05:52;;;;;;;4.90;1.33;;;8.30;99.90;;;;;;5030202;28;20200;-67
2023/03/09 04:08:17;;;;;;;0.80;0.80;;;8.40;99.90;;;;;;5032256;28;20198;-68
2023/03/09 04:10:43;;;;;;;2.13;0.93;;;8.30;99.90;;;;;;5033413;28;20266;-68
2023/03/09 04:13:08;;;;;;;2.40;0.90;;;8.30;99.90;;;;;;5034839;28;20263;-68
2023/03/09 04:15:34;;;;;;;6.53;1.60;;;8.30;99.90;;;;;;5037008;28;20505;-68
2023/03/09 04:18:00;;;;;;;2.30;1.17;;;8.20;99.90;;;;;;5030280;28;20245;-68
2023/03/09 04:20:26;;;;;;;3.00;1.70;;;8.20;99.90;;;;;;5032168;28;20182;-67
2023/03/09 04:22:51;;;;;;;2.60;1.43;;;8.20;99.90;;;;;;5035664;28;20217;-68
2023/03/09 04:25:17;;;;;;;3.70;2.17;;;8.20;99.90;;;;;;5038458;28;20489;-68
2023/03/09 04:27:43;;;;;;;7.87;2.20;;;8.20;99.90;;;;;;5031314;28;20248;-67
2023/03/09 04:30:10;;;;;;;2.87;1.57;;;8.20;99.90;;;;;;5035941;28;20182;-67
2023/03/09 04:32:36;;;;;;;5.30;1.83;;;8.20;99.90;;;;;;5038543;28;20812;-68
2023/03/09 04:35:02;;;;;;;3.80;2.00;;;8.20;99.90;;;;;;5045292;28;20431;-68
2023/03/09 04:37:27;;;;;;;5.47;2.07;;;8.20;99.90;;;;;;5040679;28;20245;-67
2023/03/09 04:39:53;;;;;;;7.37;2.17;;;8.30;99.90;;;;;;5032215;28;20836;-68
2023/03/09 04:42:18;;;;;;;2.47;1.70;;;8.30;99.90;;;;;;5044574;28;20221;-67
2023/03/09 04:44:44;;;;;;;5.53;1.77;;;8.30;99.90;;;;;;5038492;28;20609;-68
2023/03/09 04:47:13;;;;;;;4.23;1.97;;;8.30;99.90;;;;;;5040798;28;20571;-68
2023/03/09 04:49:40;;;;;;;8.67;2.30;;;8.30;99.90;;;;;;5031836;28;20188;-67
2023/03/09 04:52:05;;;;;;;6.20;2.40;;;8.30;99.90;;;;;;5040990;28;20428;-67
2023/03/09 04:54:31;;;;;;;4.03;1.90;;;8.30;99.90;;;;;;5031911;28;20440;-68
2023/03/09 04:56:57;;;;;;;7.33;1.97;;;8.30;99.90;;;;;;5029625;28;20174;-68
2023/03/09 04:59:22;;;;;;;3.97;2.10;;;8.30;99.90;;;;;;5030288;28;20202;-68
2023/03/09 05:01:48;;;;;;;6.67;1.90;;;8.30;99.90;;;;;;5031078;28;20523;-68
2023/03/09 05:04:13;;;;;;;9.87;3.03;;;8.30;99.90;;;;;;5030706;28;20588;-67
2023/03/09 05:06:39;;;;;;;4.93;2.83;;;8.40;99.90;;;;;;5029629;28;20209;-68
2023/03/09 05:09:05;;;;;;;3.63;2.40;;;8.40;99.90;;;;;;5030768;28;20546;-68
2023/03/09 05:11:31;;;;;;;5.97;2.10;;;8.40;99.90;;;;;;5030302;28;20178;-68
2023/03/09 05:13:57;;;;;;;5.93;3.20;;;8.40;99.90;;;;;;5029434;28;20174;-67
2023/03/09 05:16:22;;;;;;;5.83;2.37;;;8.50;99.90;;;;;;5028336;28;20428;-67
2023/03/09 05:18:49;;;;;;;5.47;1.83;;;8.60;99.90;;;;;;5036688;28;20209;-67
2023/03/09 05:21:14;;;;;;;3.70;1.60;;;8.60;99.90;;;;;;5042250;28;20846;-68
2023/03/09 05:23:40;;;;;;;6.20;2.10;;;8.60;99.90;;;;;;5039392;28;20436;-68
2023/03/09 05:26:07;;;;;;;4.80;1.73;;;8.70;99.90;;;;;;5038300;28;20601;-68
2023/03/09 05:28:33;;;;;;;3.83;2.03;;;8.70;99.90;;;;;;5043818;28;20201;-68
2023/03/09 05:30:59;;;;;;;3.57;1.53;;;8.70;99.90;;;;;;5048008;28;20435;-68
2023/03/09 05:33:24;;;;;;;7.10;2.53;;;8.70;99.90;;;;;;5044261;28;20442;-68
2023/03/09 05:35:50;;;;;;;9.40;2.00;;;8.70;99.90;;;;;;5040405;28;20193;-68
2023/03/09 05:38:16;;;;;;;8.73;1.87;;;8.70;99.90;;;;;;5040808;28;20243;-68
2023/03/09 05:40:42;;;;;;;9.83;3.47;;;9.60;99.90;;;;;;5049444;28;20181;-68
2023/03/09 05:43:07;;;;;;;11.27;4.70;;;8.80;99.90;;;;;;5046907;28;20847;-68
2023/03/09 05:45:33;;;;;;;5.10;1.57;;;8.80;99.90;;;;;;5047986;28;20205;-68
2023/03/09 05:47:59;;;;;;;6.10;2.00;;;8.80;99.90;;;;;;5037410;28;20206;-68
2023/03/09 05:50:24;;;;;;;6.20;2.10;;;8.90;99.90;;;;;;5041609;28;20261;-68
2023/03/09 05:52:50;;;;;;;2.50;1.73;;;8.90;99.90;;;;;;5047970;28;20244;-67
2023/03/09 05:55:16;;;;;;;7.87;2.17;;;8.90;99.90;;;;;;5043066;28;20683;-67
2023/03/09 05:57:41;;;;;;;4.73;1.93;;;8.90;99.90;;;;;;5040253;28;21042;-68
2023/03/09 06:00:09;;;;;;;4.30;2.30;;;8.90;99.90;;;;;;5038743;28;20182;-68
2023/03/09 06:02:35;;;;;;;5.57;2.13;;;8.80;99.90;;;;;;5030409;28;20582;-68
2023/03/09 06:05:01;;;;;;;3.83;2.33;;;8.80;99.90;;;;;;5033626;28;20453;-68
2023/03/09 06:07:30;;;;;;;4.10;2.50;;;8.80;99.90;;;;;;5034504;28;20495;-68
2023/03/09 06:09:56;;;;;;;6.50;2.10;;;8.80;99.90;;;;;;5032401;28;20210;-68
2023/03/09 06:12:21;;;;;;;8.87;2.47;;;9.10;99.90;;;;;;5042583;28;20842;-68
2023/03/09 06:14:48;;;;;;;6.37;2.13;;;8.70;99.90;;;;;;5035140;28;20197;-68
2023/03/09 06:17:15;;;;;;;4.90;2.17;;;8.80;99.90;;;;;;5042994;28;20210;-68
2023/03/09 06:19:41;;;;;;;11.77;5.03;;;8.80;99.90;;;;;;5037196;28;20460;-68
2023/03/09 06:22:07;;;;;;;9.77;3.10;;;8.80;99.90;;;;;;5044307;28;20518;-68
2023/03/09 06:24:32;;;;;;;3.60;2.00;;;8.90;99.90;;;;;;5033213;28;20221;-68
2023/03/09 06:26:59;;;;;;;10.00;3.30;;;8.90;99.90;;;;;;5035344;28;20256;-68
2023/03/09 06:29:25;;;;;;;5.90;3.20;;;9.00;99.90;;;;;;5033878;28;20186;-68
2023/03/09 06:31:51;;;;;;;5.57;2.10;;;9.00;99.90;;;;;;5040818;28;20841;-67
2023/03/09 06:34:17;;;;;;;6.33;2.00;;;9.10;99.90;;;;;;5035437;28;20433;-68
2023/03/09 06:36:43;;;;;;;9.40;4.03;;;9.10;99.90;;;;;;5038469;28;20182;-68
2023/03/09 06:39:09;;;;;;;5.70;2.37;;;9.00;99.90;;;;;;5031888;28;20195;-68
2023/03/09 06:41:35;;;;;;;5.67;1.83;;;9.00;99.90;;;;;;5047451;28;20463;-68
2023/03/09 06:44:01;;;;;;;6.00;2.50;;;9.00;99.90;;;;;;5039196;28;20441;-68
2023/03/09 06:46:27;;;;;;;10.00;2.83;;;9.00;99.90;;;;;;5044556;28;20811;-68
2023/03/09 06:48:52;;;;;;;4.10;2.37;;;9.00;99.90;;;;;;5051477;28;20190;-68
2023/03/09 06:51:18;;;;;;;13.23;2.63;;;9.10;99.90;;;;;;5046777;28;20197;-72
2023/03/09 06:53:44;;;;;;;7.20;3.03;;;9.10;99.90;;;;;;5033587;28;20554;-72
2023/03/09 06:56:10;;;;;;;6.40;2.33;;;9.10;99.90;;;;;;5039320;28;20193;-73
2023/03/09 06:58:36;;;;;;;2.57;1.50;;;9.00;99.90;;;;;;5027848;28;20566;-71
2023/03/09 07:01:09;;;;;;;8.50;2.50;;;9.10;99.90;;;;;;5031780;28;20527;-74
2023/03/09 07:03:35;;;;;;;7.53;2.80;;;9.10;99.90;;;;;;5034829;28;20178;-71
2023/03/09 07:06:01;;;;;;;4.23;2.33;;;9.10;99.90;;;;;;5035257;28;20456;-70
2023/03/09 07:08:27;;;;;;;4.50;1.60;;;9.10;99.90;;;;;;5044858;28;20456;-69
2023/03/09 07:10:53;;;;;;;5.67;2.00;;;9.10;99.90;;;;;;5045055;28;20412;-71
2023/03/09 07:13:18;;;;;;;4.63;2.30;;;9.20;99.90;;;;;;5043818;28;20648;-71
2023/03/09 07:15:44;;;;;;;5.60;2.53;;;9.20;99.90;;;;;;5031450;28;20178;-69
2023/03/09 07:18:10;;;;;;;3.87;2.00;;;9.40;99.90;;;;;;5032618;28;20289;-69
2023/03/09 07:20:38;;;;;;;5.93;2.50;;;9.80;99.90;;;;;;5032057;28;20719;-69
2023/03/09 07:23:03;;;;;;;3.30;1.70;;;10.00;99.90;;;;;;5033369;28;20182;-69
2023/03/09 07:25:33;;;;;;;3.40;1.63;;;10.20;99.90;;;;;;5032321;28;20469;-69
2023/03/09 07:28:03;;;;;;;8.03;2.97;;;10.30;99.90;;;;;;5033144;28;20198;-69
2023/03/09 07:30:29;;;;;;;3.37;1.87;;;10.30;99.90;;;;;;5032606;28;20420;-71
2023/03/09 07:32:59;;;;;;;6.27;1.60;;;10.30;99.90;;;;;;5033066;28;20451;-68
2023/03/09 07:35:25;;;;;;;5.13;1.97;;;10.50;99.90;;;;;;5032323;28;20855;-68
2023/03/09 07:37:51;;;;;;;4.40;1.67;;;10.80;99.90;;;;;;5032488;28;20811;-69
2023/03/09 07:40:18;;;;;;;4.77;1.90;;;11.20;99.90;;;;;;5032542;28;20424;-68
2023/03/09 07:42:45;;;;;;;4.80;2.20;;;11.60;99.90;;;;;;5033064;28;20958;-69
2023/03/09 07:45:11;;;;;;;3.33;1.77;;;11.90;99.90;;;;;;5032343;28;20452;-69
2023/03/09 07:47:36;;;;;;;7.10;1.50;;;12.20;99.90;;;;;;5032737;28;20502;-68
2023/03/09 07:50:03;;;;;;;3.43;1.47;;;12.30;99.90;;;;;;5031845;28;20179;-69
2023/03/09 07:52:31;;;;;;;5.50;1.83;;;12.50;99.90;;;;;;5031484;28;20186;-68
2023/03/09 07:54:57;;;;;;;2.83;1.80;;;12.50;99.90;;;;;;5032024;28;20934;-68
2023/03/09 07:57:23;;;;;;;3.90;1.70;;;12.50;99.90;;;;;;5032160;28;20465;-68
2023/03/09 07:59:54;;;;;;;6.20;1.73;;;12.50;99.90;;;;;;5031936;28;20953;-69
2023/03/09 08:02:19;;;;;;;5.27;1.70;;;12.50;99.90;;;;;;5029075;28;20518;-69
2023/03/09 08:04:45;;;;;;;5.50;1.60;;;12.60;99.90;;;;;;5031693;28;20907;-69
2023/03/09 08:07:11;;;;;;;6.73;1.77;;;12.60;99.90;;;;;;5031869;28;20217;-69
2023/03/09 08:09:38;;;;;;;2.80;1.70;;;12.70;99.90;;;;;;5031610;28;20519;-69
2023/03/09 08:12:04;;;;;;;5.40;1.70;;;12.70;99.90;;;;;;5032192;28;20178;-68
2023/03/09 08:14:30;;;;;;;4.30;2.23;;;12.80;99.90;;;;;;5030856;28;20806;-69
2023/03/09 08:16:55;;;;;;;3.70;1.67;;;12.70;99.90;;;;;;5031888;28;20278;-68
2023/03/09 08:19:21;;;;;;;3.40;1.40;;;13.00;99.90;;;;;;5031948;28;20228;-69
2023/03/09 08:21:48;;;;;;;5.97;1.47;;;13.50;99.90;;;;;;5032325;28;20170;-69
2023/03/09 08:24:14;;;;;;;3.10;1.10;;;13.90;99.90;;;;;;5031825;28;20413;-69
2023/03/09 08:26:40;;;;;;;5.77;1.40;;;13.80;99.90;;;;;;5032137;28;20452;-70
2023/03/09 08:29:05;;;;;;;3.27;1.73;;;13.80;99.90;;;;;;5031016;28;20506;-70
2023/03/09 08:31:32;;;;;;;2.03;1.30;;;13.90;99.90;;;;;;5032040;28;20608;-69
2023/03/09 08:33:58;;;;;;;2.37;1.40;;;13.70;99.90;;;;;;5031699;28;20171;-70
2023/03/09 08:36:23;;;;;;;1.57;0.90;;;13.90;99.90;;;;;;5032037;28;20475;-70
2023/03/09 08:38:49;;;;;;;3.90;1.90;;;13.60;99.90;;;;;;5031338;28;20202;-69
2023/03/09 08:41:16;;;;;;;3.23;1.40;;;13.40;99.90;;;;;;5032175;28;20217;-69
2023/03/09 08:43:41;;;;;;;4.43;1.40;;;13.30;99.90;;;;;;5032048;28;20977;-70
2023/03/09 08:46:07;;;;;;;2.07;1.20;;;13.60;99.90;;;;;;5030864;28;20567;-70
2023/03/09 08:48:33;;;;;;;3.73;1.17;;;13.40;99.90;;;;;;5031155;28;20206;-70
2023/03/09 08:51:00;;;;;;;2.27;1.10;;;13.30;99.90;;;;;;5032120;28;20980;-69
2023/03/09 08:53:26;;;;;;;4.43;1.50;;;13.10;99.90;;;;;;5032085;28;20171;-70
2023/03/09 08:55:51;;;;;;;3.20;1.77;;;13.30;99.90;;;;;;5031718;28;20448;-70
2023/03/09 08:58:17;;;;;;;1.97;1.63;;;13.20;99.90;;;;;;5030711;28;20731;-70
2023/03/09 09:00:42;;;;;;;2.67;1.80;;;13.80;99.90;;;;;;5031893;28;20315;-69
2023/03/09 09:03:08;;;;;;;1.40;1.20;;;13.90;99.90;;;;;;5031908;28;20557;-70
2023/03/09 09:05:34;;;;;;;4.30;1.50;;;13.90;99.90;;;;;;5030903;28;20292;-69
2023/03/09 09:08:00;;;;;;;1.63;1.53;;;13.90;99.90;;;;;;5031697;28;20204;-69
2023/03/09 09:10:26;;;;;;;3.20;1.43;;;13.90;99.90;;;;;;5031319;28;20416;-69
2023/03/09 09:12:51;;;;;;;7.53;1.73;;;13.60;99.90;;;;;;5031773;28;20620;-69
2023/03/09 09:15:17;;;;;;;3.03;1.83;;;12.60;99.90;;;;;;5031446;28;20194;-69
2023/03/09 09:17:42;;;;;;;5.90;1.30;;;11.90;99.90;;;;;;5026270;28;20276;-69
2023/03/09 09:20:09;;;;;;;2.90;1.40;;;11.40;99.90;;;;;;5032022;28;20256;-69
2023/03/09 09:22:35;;;;;;;3.97;2.33;;;11.10;99.90;;;;;;5035797;28;20182;-68
2023/03/09 09:25:04;;;;;;;2.80;1.50;;;10.90;99.90;;;;;;5035101;28;20492;-69
2023/03/09 09:27:29;;;;;;;1.77;1.10;;;10.70;99.90;;;;;;5035317;28;20460;-68
2023/03/09 09:29:56;;;;;;;2.20;1.40;;;11.10;99.90;;;;;;5034920;28;20425;-68
2023/03/09 09:32:22;;;;;;;2.80;1.40;;;11.80;99.90;;;;;;5035650;28;20176;-68
2023/03/09 09:34:47;;;;;;;3.17;1.40;;;12.10;99.90;;;;;;5034858;28;20535;-68
2023/03/09 09:37:15;;;;;;;2.33;1.10;;;12.00;99.90;;;;;;5035379;28;20440;-68
2023/03/09 09:39:40;;;;;;;7.87;3.90;;;12.20;99.90;;;;;;5034828;28;20170;-67
2023/03/09 09:42:22;;;;;;;3.20;1.70;;;12.20;99.90;;;;;;5035249;28;20421;-71
2023/03/09 09:44:51;;;;;;;3.13;1.47;;;12.10;99.90;;;;;;5034985;28;20670;-70
2023/03/09 09:47:21;;;;;;;6.73;1.47;;;12.20;99.90;;;;;;5034942;28;20892;-70
2023/03/09 09:49:50;;;;;;;4.00;1.67;;;12.40;99.90;;;;;;5034574;28;20431;-70
2023/03/09 09:52:39;;;;;;;1.27;1.00;;;12.60;99.90;;;;;;5034079;28;20432;-70
2023/03/09 09:55:19;;;;;;;2.90;1.93;;;12.40;99.90;;;;;;5034735;28;20413;-70
2023/03/09 09:57:48;;;;;;;1.73;1.20;;;12.20;99.90;;;;;;5033969;28;20456;-71
2023/03/09 10:00:27;;;;;;;4.80;1.00;;;12.20;99.90;;;;;;5033614;28;20443;-72
2023/03/09 10:03:00;;;;;;;2.07;1.30;;;12.10;99.90;;;;;;5034997;28;20500;-72
2023/03/09 10:05:27;;;;;;;1.47;1.10;;;12.00;99.90;;;;;;5034798;28;20488;-72
2023/03/09 10:07:56;;;;;;;3.10;1.20;;;12.10;99.90;;;;;;5033521;28;20503;-72
2023/03/09 10:10:26;;;;;;;2.00;1.50;;;12.80;99.90;;;;;;5033272;28;21107;-71
2023/03/09 10:12:53;;;;;;;4.17;1.30;;;14.30;99.90;;;;;;5034919;28;20925;-70
2023/03/09 10:15:21;;;;;;;3.47;2.47;;;15.00;99.90;;;;;;5034329;28;20922;-72
2023/03/09 10:17:57;;;;;;;3.20;1.20;;;14.60;99.90;;;;;;5033397;28;20480;-71
2023/03/09 10:20:35;;;;;;;1.47;1.10;;;14.00;99.90;;;;;;5026645;28;20447;-71
2023/03/09 10:23:15;;;;;;;1.30;1.20;;;13.30;99.90;;;;;;5034271;28;20456;-71
2023/03/09 10:25:43;;;;;;;1.77;1.30;;;12.80;99.90;;;;;;5034538;28;20487;-71
2023/03/09 10:28:18;;;;;;;2.50;1.33;;;12.50;99.90;;;;;;5033138;28;20505;-72
2023/03/09 10:30:55;;;;;;;3.90;1.20;;;12.40;99.90;;;;;;5032952;28;20487;-72
2023/03/09 10:33:39;;;;;;;1.70;1.00;;;12.50;99.90;;;;;;5026720;28;20862;-71
2023/03/09 10:36:07;;;;;;;1.50;0.93;;;12.90;99.90;;;;;;5034174;28;20786;-71
2023/03/09 10:38:36;;;;;;;2.87;1.20;;;13.00;99.90;;;;;;5032376;28;20464;-72
2023/03/09 10:41:01;;;;;;;2.87;1.30;;;13.20;99.90;;;;;;5033365;28;20436;-71
2023/03/09 10:43:31;;;;;;;1.37;1.20;;;13.70;99.90;;;;;;5033829;28;20496;-72
2023/03/09 10:46:17;;;;;;;1.60;1.33;;;14.40;99.90;;;;;;5034025;28;20198;-71
2023/03/09 10:48:44;;;;;;;1.43;1.17;;;16.00;99.90;;;;;;5032316;28;20507;-70
2023/03/09 10:51:36;;;;;;;3.60;1.30;;;17.60;99.90;;;;;;5032665;28;21150;-70
2023/03/09 10:54:22;;;;;;;1.70;1.40;;;18.30;99.90;;;;;;5034281;28;20409;-70
2023/03/09 10:56:47;;;;;;;3.43;1.67;;;18.80;99.90;;;;;;5033873;28;20948;-68
2023/03/09 10:59:21;;;;;;;3.50;2.10;;;18.80;99.90;;;;;;5032580;28;20436;-69
2023/03/09 11:01:49;;;;;;;4.80;2.27;;;20.00;99.90;;;;;;5033573;28;20166;-69
2023/03/09 11:04:35;;;;;;;4.20;2.00;;;20.70;97.70;;;;;;5033685;28;20483;-71
2023/03/09 11:07:17;;;;;;;3.03;1.37;;;20.00;95.50;;;;;;5033847;28;20456;-69
2023/03/09 11:09:43;;;;;;;1.87;1.53;;;20.30;95.20;;;;;;5032232;28;20508;-70
2023/03/09 11:12:16;;;;;;;2.63;1.53;;;20.40;93.20;;;;;;5032716;28;20966;-72
2023/03/09 11:14:45;;;;;;;2.53;1.40;;;19.70;95.10;;;;;;5018406;28;20171;-74
2023/03/09 11:17:33;;;;;;;2.80;1.80;;;19.60;94.80;;;;;;5013674;28;20450;-73
2023/03/09 11:20:18;;;;;;;7.40;2.43;;;19.90;94.00;;;;;;5032098;28;20433;-69
2023/03/09 11:23:09;;;;;;;3.23;1.87;;;20.00;93.00;;;;;;5033278;28;20425;-70
2023/03/09 11:25:55;;;;;;;2.30;1.27;;;18.80;95.30;;;;;;5030653;28;20472;-70
2023/03/09 11:28:45;;;;;;;3.50;1.80;;;18.50;94.80;;;;;;5032147;28;20468;-69
2023/03/09 11:31:19;;;;;;;2.13;1.73;;;17.90;97.10;;;;;;5033229;28;20424;-68
2023/03/09 11:33:47;;;;;;;2.73;1.40;;;18.80;96.10;;;;;;5033262;28;20413;-68
2023/03/09 11:36:17;;;;;;;2.03;1.47;;;19.70;92.90;;;;;;5033207;28;20421;-68
2023/03/09 11:38:45;;;;;;;1.83;1.23;;;19.80;91.30;;;;;;5031928;28;21147;-68
2023/03/09 11:41:33;;;;;;;5.70;2.07;;;20.30;90.90;;;;;;5031270;28;20457;-67
2023/03/09 11:44:06;;;;;;;2.93;1.57;;;20.20;88.80;;;;;;5033054;28;20870;-68
2023/03/09 11:46:33;;;;;;;4.13;1.40;;;20.30;88.20;;;;;;5032843;28;20554;-68
2023/03/09 11:49:10;;;;;;;3.27;2.20;;;20.50;88.20;;;;;;5029456;28;20487;-68
2023/03/09 11:51:41;;;;;;;4.87;1.70;;;21.20;86.10;;;;;;5031573;28;20435;-68
2023/03/09 11:54:26;;;;;;;3.23;2.17;;;20.70;84.70;;;;;;5031563;28;20424;-69
2023/03/09 11:56:53;;;;;;;4.20;2.00;;;20.50;85.70;;;;;;5032619;28;20417;-70
2023/03/09 11:59:29;;;;;;;6.13;1.30;;;19.40;89.80;;;;;;5032124;28;20440;-68
2023/03/09 12:02:17;;;;;;;1.90;1.23;;;19.10;90.50;;;;;;5032775;28;20420;-67
2023/03/09 12:04:51;;;;;;;2.57;1.50;;;18.60;91.50;;;;;;5032703;28;20445;-68
2023/03/09 12:07:43;;;;;;;3.97;1.67;;;17.80;92.70;;;;;;5032539;28;20930;-69
2023/03/09 12:10:17;;;;;;;2.00;1.50;;;17.10;95.30;;;;;;5031964;28;20451;-69
2023/03/09 12:12:55;;;;;;;2.20;1.53;;;17.50;95.70;;;;;;5032547;28;20447;-70
2023/03/09 12:15:30;;;;;;;247.30;62.70;;;17.70;96.10;;;;;;5032514;28;20512;-69
2023/03/09 12:17:58;;;;;;;4.03;1.90;;;18.60;92.90;;;;;;5021389;28;20464;-67
2023/03/09 12:20:41;;;;;;;3.07;1.67;;;19.30;92.20;;;;;;5032048;28;20417;-68
2023/03/09 12:23:39;;;;;;;4.33;1.57;;;20.70;87.10;;;;;;5032496;28;20910;-67
2023/03/09 12:26:20;;;;;;;2.50;1.80;;;20.70;83.10;;;;;;5031858;28;20467;-68
2023/03/09 12:28:56;;;;;;;2.70;1.50;;;19.60;86.00;;;;;;5032181;28;20448;-70
2023/03/09 12:31:34;;;;;;;3.20;1.30;;;20.00;86.50;;;;;;5032144;28;20941;-70
2023/03/09 12:33:59;;;;;;;2.00;1.60;;;19.70;87.50;;;;;;5032270;28;20459;-71
2023/03/09 12:36:26;;;;;;;5.53;2.03;;;20.40;86.40;;;;;;5032161;28;20437;-70
2023/03/09 12:39:22;;;;;;;2.50;1.83;;;20.20;85.00;;;;;;5031433;28;20193;-71
2023/03/09 12:42:14;;;;;;;4.40;1.97;;;20.10;85.10;;;;;;5032151;28;20417;-70
2023/03/09 12:44:51;;;;;;;5.57;1.53;;;19.60;87.50;;;;;;5030759;28;20424;-71
2023/03/09 12:47:36;;;;;;;5.13;1.50;;;19.60;88.10;;;;;;5031100;28;20558;-71
2023/03/09 12:50:21;;;;;;;3.57;1.83;;;19.40;89.30;;;;;;5031468;28;20431;-70
2023/03/09 12:53:33;;;;;;;6.00;2.50;;;18.50;90.70;;;;;;5031879;28;20447;-70
2023/03/09 12:56:12;;;;;;;3.43;1.70;;;17.60;93.60;;;;;;5031210;28;20459;-71
2023/03/09 12:58:42;;;;;;;3.67;1.80;;;17.00;95.70;;;;;;5031325;28;20447;-70
2023/03/09 13:01:15;;;;;;;1.73;1.33;;;16.90;96.30;;;;;;5031822;28;20872;-71